createdAt,value
2023-01-08T00:01:57.458Z,20.83
2023-01-08T00:04:24.090Z,20.37
2023-01-08T00:06:52.307Z,18.90
2023-01-08T00:09:19.018Z,20.27
2023-01-08T00:14:30.422Z,22.43
2023-01-08T00:19:42.276Z,20.00
2023-01-08T00:22:08.877Z,19.90
2023-01-08T00:24:35.506Z,19.83
2023-01-08T00:27:02.058Z,21.27
2023-01-08T00:29:28.734Z,22.23
2023-01-08T00:31:55.929Z,20.83
2023-01-08T00:34:22.625Z,22.57
2023-01-08T00:36:49.399Z,22.00
2023-01-08T00:39:16.060Z,21.67
2023-01-08T00:41:45.393Z,21.43
2023-01-08T00:44:12.086Z,21.77
2023-01-08T00:46:40.945Z,26.83
2023-01-08T00:49:07.575Z,23.27
2023-01-08T00:54:19.673Z,23.10
2023-01-08T00:59:30.581Z,22.20
2023-01-08T01:01:57.314Z,22.77
2023-01-08T01:04:25.400Z,23.60
2023-01-08T01:06:52.896Z,22.50
2023-01-08T01:09:19.575Z,23.50
2023-01-08T01:11:46.129Z,24.57
2023-01-08T01:14:12.810Z,23.00
2023-01-08T01:19:25.537Z,24.50
2023-01-08T01:24:36.370Z,25.20
2023-01-08T01:27:03.456Z,22.87
2023-01-08T01:29:30.208Z,24.13
2023-01-08T01:31:57.707Z,25.07
2023-01-08T01:34:24.474Z,23.83
2023-01-08T01:36:51.524Z,24.50
2023-01-08T01:39:19.966Z,27.87
2023-01-08T02:19:33.320Z,29.57
2023-01-08T02:22:10.683Z,30.13
2023-01-08T02:24:56.525Z,29.33
2023-01-08T02:27:24.220Z,31.43
2023-01-08T02:29:51.686Z,30.30
2023-01-08T02:32:18.335Z,27.77
2023-01-08T02:34:44.940Z,34.27
2023-01-08T02:37:11.549Z,32.83
2023-01-08T02:39:40.902Z,29.90
2023-01-08T02:42:07.509Z,32.13
2023-01-08T02:44:57.389Z,31.07
2023-01-08T02:47:38.416Z,26.97
2023-01-08T02:53:02.129Z,29.50
2023-01-08T02:55:28.710Z,32.00
2023-01-08T02:57:55.355Z,32.33
2023-01-08T03:00:21.964Z,32.03
2023-01-08T03:02:50.599Z,34.50
2023-01-08T03:05:21.641Z,32.50
2023-01-08T03:07:48.394Z,31.90
2023-01-08T03:10:15.019Z,32.33
2023-01-08T03:12:50.538Z,31.20
2023-01-08T03:15:19.567Z,33.13
2023-01-08T03:17:47.007Z,32.33
2023-01-08T03:20:15.325Z,32.30
2023-01-08T03:22:42.212Z,30.43
2023-01-08T03:25:08.927Z,29.07
2023-01-08T03:27:37.943Z,29.40
2023-01-08T03:30:05.312Z,31.80
2023-01-08T03:32:31.880Z,31.90
2023-01-08T03:34:58.666Z,33.17
2023-01-08T03:37:26.337Z,30.53
2023-01-08T03:39:54.791Z,30.67
2023-01-08T03:42:21.352Z,32.73
2023-01-08T03:44:48.027Z,30.27
2023-01-08T03:47:14.613Z,32.03
2023-01-08T03:49:41.207Z,31.27
2023-01-08T03:54:51.883Z,27.23
2023-01-08T03:57:18.526Z,32.43
2023-01-08T03:59:45.180Z,31.13
2023-01-08T04:02:11.892Z,30.93
2023-01-08T04:04:38.641Z,32.00
2023-01-08T04:07:05.281Z,32.70
2023-01-08T04:09:31.909Z,30.80
2023-01-08T04:11:58.545Z,30.27
2023-01-08T04:14:25.243Z,30.17
2023-01-08T04:16:53.307Z,32.17
2023-01-08T04:19:20.103Z,29.30
2023-01-08T04:21:46.786Z,29.27
2023-01-08T04:24:13.529Z,30.60
2023-01-08T04:26:40.127Z,29.70
2023-01-08T04:29:06.777Z,29.00
2023-01-08T04:31:33.327Z,29.80
2023-01-08T04:34:00.032Z,29.43
2023-01-08T04:36:26.592Z,30.57
2023-01-08T04:38:53.264Z,30.07
2023-01-08T04:44:04.099Z,28.87
2023-01-08T04:46:30.720Z,30.50
2023-01-08T04:48:57.445Z,31.97
2023-01-08T04:51:25.885Z,30.07
2023-01-08T04:56:36.546Z,30.47
2023-01-08T04:59:03.286Z,31.63
2023-01-08T05:01:30.052Z,29.80
2023-01-08T05:03:59.781Z,29.40
2023-01-08T05:09:11.864Z,29.90
2023-01-08T05:11:38.571Z,31.27
2023-01-08T05:14:05.342Z,29.53
2023-01-08T05:16:32.202Z,29.57
2023-01-08T05:21:43.500Z,28.23
2023-01-08T05:26:54.342Z,28.87
2023-01-08T05:29:20.945Z,29.40
2023-01-08T05:31:47.721Z,32.67
2023-01-08T05:34:14.406Z,29.43
2023-01-08T05:39:25.258Z,29.67
2023-01-08T05:44:36.171Z,32.33
2023-01-08T05:47:03.014Z,30.77
2023-01-08T05:49:29.662Z,30.07
2023-01-08T05:51:56.237Z,29.13
2023-01-08T05:54:22.911Z,30.63
2023-01-08T05:56:49.496Z,31.67
2023-01-08T05:59:16.241Z,33.70
2023-01-08T06:01:42.904Z,33.50
2023-01-08T06:04:09.670Z,32.33
2023-01-08T06:06:36.297Z,32.50
2023-01-08T06:09:02.950Z,35.40
2023-01-08T06:11:29.584Z,34.13
2023-01-08T06:13:56.286Z,33.83
2023-01-08T06:19:06.672Z,34.37
2023-01-08T06:24:17.599Z,35.83
2023-01-08T06:26:44.208Z,37.63
2023-01-08T06:29:10.908Z,37.77
2023-01-08T06:31:37.529Z,37.60
2023-01-08T06:34:04.201Z,35.60
2023-01-08T06:36:30.728Z,37.30
2023-01-08T06:38:57.395Z,37.70
2023-01-08T06:41:23.997Z,38.97
2023-01-08T06:43:50.641Z,38.43
2023-01-08T06:46:17.234Z,38.33
2023-01-08T06:48:43.963Z,36.97
2023-01-08T06:51:11.953Z,35.23
2023-01-08T06:53:38.619Z,33.70
2023-01-08T06:56:07.590Z,36.73
2023-01-08T06:58:34.342Z,37.90
2023-01-08T07:01:00.920Z,36.93
2023-01-08T07:06:21.306Z,37.20
2023-01-08T07:08:48.301Z,35.03
2023-01-08T07:11:14.888Z,35.20
2023-01-08T07:13:41.643Z,39.27
2023-01-08T07:16:08.818Z,40.70
2023-01-08T07:18:36.159Z,37.70
2023-01-08T07:21:03.479Z,38.13
2023-01-08T07:23:30.204Z,38.67
2023-01-08T07:25:59.764Z,43.80
2023-01-08T07:28:26.375Z,46.50
2023-01-08T07:30:52.959Z,40.03
2023-01-08T07:33:19.601Z,43.33
2023-01-08T07:35:55.432Z,46.73
2023-01-08T07:38:22.229Z,41.93
2023-01-08T07:40:48.825Z,39.67
2023-01-08T07:43:15.518Z,39.57
2023-01-08T07:45:42.186Z,36.93
2023-01-08T07:48:10.668Z,39.90
2023-01-08T07:53:21.763Z,39.17
2023-01-08T07:55:48.344Z,37.90
2023-01-08T07:58:15.004Z,39.57
2023-01-08T08:00:41.621Z,38.77
2023-01-08T08:03:09.427Z,38.07
2023-01-08T08:05:36.117Z,38.30
2023-01-08T08:08:02.795Z,38.40
2023-01-08T08:10:29.416Z,30.70
2023-01-08T08:12:56.022Z,38.27
2023-01-08T08:15:23.091Z,38.53
2023-01-08T08:17:49.965Z,40.27
2023-01-08T08:20:16.727Z,40.10
2023-01-08T08:22:43.295Z,40.13
2023-01-08T08:25:10.049Z,38.37
2023-01-08T08:27:36.761Z,40.20
2023-01-08T08:30:04.547Z,39.93
2023-01-08T08:35:15.267Z,37.57
2023-01-08T08:40:26.380Z,32.63
2023-01-08T08:42:59.586Z,41.17
2023-01-08T08:45:26.409Z,38.20
2023-01-08T08:47:52.984Z,39.77
2023-01-08T08:50:19.738Z,39.90
2023-01-08T08:52:46.493Z,38.43
2023-01-08T08:55:16.056Z,39.30
2023-01-08T08:57:43.038Z,35.43
2023-01-08T09:00:10.095Z,35.77
2023-01-08T09:02:37.068Z,40.63
2023-01-08T09:05:03.925Z,36.90
2023-01-08T09:07:30.571Z,39.90
2023-01-08T09:09:57.339Z,37.17
2023-01-08T09:15:08.185Z,38.73
2023-01-08T09:20:21.154Z,38.50
2023-01-08T09:22:48.003Z,38.00
2023-01-08T09:25:15.389Z,37.83
2023-01-08T09:27:42.094Z,35.93
2023-01-08T09:30:09.073Z,37.10
2023-01-08T09:32:35.701Z,35.60
2023-01-08T09:35:02.350Z,38.13
2023-01-08T09:37:29.106Z,35.60
2023-01-08T09:40:02.265Z,35.87
2023-01-08T09:42:29.693Z,34.47
2023-01-08T09:44:56.306Z,39.40
2023-01-08T09:47:34.786Z,36.30
2023-01-08T09:50:02.417Z,35.13
2023-01-08T09:52:29.617Z,39.30
2023-01-08T09:57:40.949Z,32.43
2023-01-08T10:00:30.761Z,35.27
2023-01-08T10:02:58.034Z,34.97
2023-01-08T10:05:25.823Z,34.93
2023-01-08T10:07:53.482Z,34.23
2023-01-08T10:10:21.133Z,36.07
2023-01-08T10:12:48.105Z,38.97
2023-01-08T10:15:16.006Z,36.83
2023-01-08T10:17:42.649Z,35.23
2023-01-08T10:20:12.745Z,36.23
2023-01-08T10:22:39.628Z,36.40
2023-01-08T10:25:10.550Z,35.07
2023-01-08T10:30:41.719Z,38.13
2023-01-08T10:33:12.218Z,36.20
2023-01-08T10:35:39.319Z,35.87
2023-01-08T10:38:05.960Z,36.17
2023-01-08T10:40:44.362Z,33.07
2023-01-08T10:43:17.933Z,34.97
2023-01-08T10:45:44.867Z,32.43
2023-01-08T10:48:17.878Z,27.13
2023-01-08T10:50:44.535Z,33.97
2023-01-08T10:53:24.543Z,31.90
2023-01-08T10:58:48.131Z,31.90
2023-01-08T11:01:24.225Z,33.07
2023-01-08T11:03:51.336Z,35.03
2023-01-08T11:06:20.189Z,34.43
2023-01-08T11:08:51.657Z,32.07
2023-01-08T11:11:18.423Z,33.93
2023-01-08T11:16:45.078Z,30.97
2023-01-08T11:19:16.422Z,33.30
2023-01-08T11:21:43.193Z,33.77
2023-01-08T11:27:10.216Z,33.00
2023-01-08T11:29:55.834Z,37.47
2023-01-08T11:32:29.373Z,31.90
2023-01-08T11:34:56.154Z,31.50
2023-01-08T11:37:29.595Z,30.83
2023-01-08T11:39:56.516Z,34.60
2023-01-08T11:42:42.051Z,24.23
2023-01-08T11:45:12.104Z,32.67
2023-01-08T11:47:44.888Z,30.83
2023-01-08T11:50:11.561Z,34.23
2023-01-08T11:52:42.213Z,34.03
2023-01-08T11:58:23.230Z,27.87
2023-01-08T12:00:57.118Z,29.00
2023-01-08T12:03:34.575Z,29.57
2023-01-08T12:08:58.530Z,32.43
2023-01-08T12:11:31.673Z,32.20
2023-01-08T12:13:58.397Z,31.23
2023-01-08T12:16:43.928Z,32.53
2023-01-08T12:19:15.268Z,32.17
2023-01-08T12:21:41.892Z,31.90
2023-01-08T12:24:26.985Z,32.17
2023-01-08T12:27:06.774Z,30.37
2023-01-08T12:29:45.795Z,32.40
2023-01-08T12:32:12.580Z,33.37
2023-01-08T12:34:42.348Z,33.50
2023-01-08T12:37:14.596Z,33.20
2023-01-08T12:39:49.539Z,32.07
2023-01-08T12:42:17.503Z,32.93
2023-01-08T12:44:44.399Z,35.53
2023-01-08T12:47:14.361Z,36.67
2023-01-08T12:49:43.398Z,27.33
2023-01-08T12:52:16.344Z,31.07
2023-01-08T12:57:40.800Z,24.27
2023-01-08T13:00:17.830Z,35.27
2023-01-08T13:02:48.203Z,35.33
2023-01-08T13:05:14.910Z,31.50
2023-01-08T13:07:46.929Z,28.37
2023-01-08T13:10:41.125Z,33.77
2023-01-08T13:15:52.750Z,31.30
2023-01-08T13:18:19.908Z,33.57
2023-01-08T13:21:04.903Z,34.47
2023-01-08T13:26:16.711Z,32.93
2023-01-08T13:28:44.708Z,34.83
2023-01-08T13:31:20.257Z,35.90
2023-01-08T13:33:48.776Z,34.43
2023-01-08T13:36:16.677Z,36.13
2023-01-08T13:38:43.677Z,35.10
2023-01-08T13:41:26.398Z,36.00
2023-01-08T13:44:04.407Z,34.67
2023-01-08T13:49:23.821Z,32.00
2023-01-08T13:51:51.223Z,35.70
2023-01-08T13:54:19.351Z,35.53
2023-01-08T13:56:46.804Z,34.10
2023-01-08T13:59:21.750Z,35.10
2023-01-08T14:01:55.479Z,35.63
2023-01-08T14:04:22.972Z,36.30
2023-01-08T14:06:52.095Z,33.53
2023-01-08T14:12:09.451Z,37.47
2023-01-08T14:14:36.051Z,34.23
2023-01-08T14:17:03.235Z,38.93
2023-01-08T14:19:29.826Z,37.63
2023-01-08T14:21:59.608Z,37.37
2023-01-08T14:24:26.227Z,36.97
2023-01-08T14:26:56.788Z,34.73
2023-01-08T14:32:20.588Z,33.33
2023-01-08T14:34:47.860Z,37.80
2023-01-08T14:37:14.960Z,33.63
2023-01-08T14:39:41.677Z,35.10
2023-01-08T14:42:27.518Z,37.57
2023-01-08T14:44:58.284Z,37.10
2023-01-08T14:47:26.134Z,39.93
2023-01-08T14:49:53.360Z,33.67
2023-01-08T14:52:21.560Z,29.73
2023-01-08T14:54:49.637Z,37.20
2023-01-08T14:57:17.828Z,34.33
2023-01-08T14:59:44.704Z,37.73
2023-01-08T15:02:18.874Z,32.97
2023-01-08T15:04:46.852Z,29.77
2023-01-08T15:07:19.433Z,35.00
2023-01-08T15:09:54.975Z,33.63
2023-01-08T15:12:28.669Z,35.50
2023-01-08T15:14:56.052Z,34.90
2023-01-08T15:17:24.150Z,30.60
2023-01-08T15:22:41.473Z,37.13
2023-01-08T15:25:15.374Z,34.40
2023-01-08T15:27:42.928Z,36.27
2023-01-08T15:30:24.066Z,28.03
2023-01-08T15:32:50.799Z,30.67
2023-01-08T15:35:18.257Z,30.83
2023-01-08T15:37:45.276Z,34.20
2023-01-08T15:40:12.390Z,34.70
2023-01-08T15:42:58.301Z,25.00
2023-01-08T15:45:29.396Z,36.00
2023-01-08T15:47:56.695Z,33.37
2023-01-08T15:50:24.703Z,32.73
2023-01-08T15:52:52.669Z,34.87
2023-01-08T15:55:22.851Z,34.40
2023-01-08T15:57:49.859Z,33.97
2023-01-08T16:00:17.659Z,32.23
2023-01-08T16:02:46.820Z,32.37
2023-01-08T16:05:15.134Z,35.83
2023-01-08T16:07:42.384Z,34.17
2023-01-08T16:10:11.021Z,32.83
2023-01-08T16:12:38.587Z,35.23
2023-01-08T16:15:08.357Z,30.40
2023-01-08T16:17:36.814Z,33.20
2023-01-08T16:20:04.647Z,30.67
2023-01-08T16:22:31.685Z,36.40
2023-01-08T16:24:58.788Z,35.23
2023-01-08T16:27:25.775Z,26.73
2023-01-08T16:29:55.293Z,31.13
2023-01-08T16:32:23.462Z,33.63
2023-01-08T16:34:50.189Z,34.17
2023-01-08T16:37:17.318Z,30.50
2023-01-08T16:39:44.187Z,28.13
2023-01-08T16:42:12.095Z,31.60
2023-01-08T16:44:39.600Z,28.87
2023-01-08T16:47:06.630Z,33.50
2023-01-08T16:49:33.974Z,33.33
2023-01-08T16:52:01.014Z,32.93
2023-01-08T16:57:12.288Z,34.97
2023-01-08T16:59:38.933Z,27.97
2023-01-08T17:02:05.678Z,32.73
2023-01-08T17:04:34.004Z,34.67
2023-01-08T17:07:00.808Z,33.73
2023-01-08T17:09:27.525Z,33.90
2023-01-08T17:11:54.378Z,33.37
2023-01-08T17:14:21.354Z,35.00
2023-01-08T17:16:50.293Z,32.40
2023-01-08T17:19:17.340Z,32.73
2023-01-08T17:21:46.762Z,33.53
2023-01-08T17:24:17.817Z,34.03
2023-01-08T17:26:48.209Z,29.27
2023-01-08T17:32:00.308Z,33.30
2023-01-08T17:34:28.180Z,23.13
2023-01-08T17:36:56.508Z,33.53
2023-01-08T17:39:23.245Z,29.57
2023-01-08T17:44:54.469Z,32.70
2023-01-08T17:50:06.055Z,33.97
2023-01-08T17:52:33.605Z,34.83
2023-01-08T17:55:00.339Z,31.07
2023-01-08T17:57:27.388Z,25.33
2023-01-08T17:59:54.187Z,35.07
2023-01-08T18:02:20.917Z,35.37
2023-01-08T18:04:50.289Z,34.73
2023-01-08T18:07:17.089Z,34.27
2023-01-08T18:09:45.130Z,34.47
2023-01-08T18:12:11.905Z,33.60
2023-01-08T18:14:41.599Z,34.23
2023-01-08T18:17:10.021Z,35.80
2023-01-08T18:19:37.101Z,32.87
2023-01-08T18:22:04.336Z,31.90
2023-01-08T18:24:33.204Z,32.00
2023-01-08T18:27:00.320Z,34.37
2023-01-08T18:32:12.701Z,26.90
2023-01-08T18:34:40.627Z,30.23
2023-01-08T18:37:09.068Z,28.60
2023-01-08T18:39:35.806Z,34.43
2023-01-08T18:42:21.373Z,32.43
2023-01-08T18:44:52.605Z,33.07
2023-01-08T18:47:24.108Z,30.90
2023-01-08T18:49:55.306Z,33.07
2023-01-08T18:52:25.036Z,31.97
2023-01-08T18:54:53.277Z,31.40
2023-01-08T18:57:21.494Z,34.43
2023-01-08T18:59:49.551Z,33.53
2023-01-08T19:02:21.444Z,33.53
2023-01-08T19:04:48.903Z,32.07
2023-01-08T19:07:15.817Z,24.50
2023-01-08T19:09:46.487Z,35.60
2023-01-08T19:12:17.246Z,32.10
2023-01-08T19:14:47.008Z,32.40
2023-01-08T19:17:14.008Z,33.40
2023-01-08T19:22:28.629Z,33.10
2023-01-08T19:24:55.936Z,22.70
2023-01-08T19:27:24.420Z,30.07
2023-01-08T19:29:53.819Z,34.30
2023-01-08T19:32:22.105Z,32.33
2023-01-08T19:34:49.033Z,32.47
2023-01-08T19:37:16.268Z,31.37
2023-01-08T19:39:44.935Z,32.40
2023-01-08T19:42:34.518Z,32.13
2023-01-08T19:45:02.921Z,32.73
2023-01-08T19:47:36.087Z,31.90
2023-01-08T19:50:03.290Z,32.73
2023-01-08T19:52:34.209Z,33.37
2023-01-08T19:57:49.349Z,32.77
2023-01-08T20:00:22.496Z,31.70
2023-01-08T20:02:50.034Z,32.63
2023-01-08T20:05:17.346Z,32.47
2023-01-08T20:07:45.384Z,33.60
2023-01-08T20:10:12.138Z,33.37
2023-01-08T20:12:40.273Z,29.33
2023-01-08T20:15:08.547Z,30.30
2023-01-08T20:17:35.498Z,32.77
2023-01-08T20:20:05.489Z,32.60
2023-01-08T20:25:22.856Z,32.60
2023-01-08T20:27:50.921Z,31.43
2023-01-08T20:30:19.115Z,32.70
2023-01-08T20:32:45.810Z,35.40
2023-01-08T20:35:12.466Z,28.13
2023-01-08T20:37:39.261Z,28.83
2023-01-08T20:40:06.206Z,29.27
2023-01-08T20:45:17.053Z,31.93
2023-01-08T20:47:43.700Z,28.67
2023-01-08T20:50:20.036Z,32.43
2023-01-08T20:55:32.472Z,31.80
2023-01-08T20:58:00.190Z,31.20
2023-01-08T21:00:26.939Z,33.77
2023-01-08T21:02:55.877Z,30.13
2023-01-08T21:05:22.626Z,34.20
2023-01-08T21:07:50.880Z,31.87
2023-01-08T21:10:20.080Z,33.27
2023-01-08T21:12:47.229Z,33.10
2023-01-08T21:15:13.969Z,32.37
2023-01-08T21:17:40.574Z,33.57
2023-01-08T21:20:08.187Z,32.30
2023-01-08T21:22:34.805Z,34.07
2023-01-08T21:25:01.428Z,33.00
2023-01-08T21:27:29.326Z,33.27
2023-01-08T21:29:56.078Z,32.77
2023-01-08T21:32:22.686Z,31.73
2023-01-08T21:37:33.744Z,32.50
2023-01-08T21:40:00.933Z,31.83
2023-01-08T21:42:45.946Z,32.23
2023-01-08T21:48:10.422Z,30.03
2023-01-08T21:50:37.112Z,33.33
2023-01-08T21:53:22.186Z,33.13
2023-01-08T21:55:48.924Z,32.93
2023-01-08T21:58:15.606Z,32.70
2023-01-08T22:00:42.767Z,33.43
2023-01-08T22:03:09.429Z,33.90
2023-01-08T22:05:36.095Z,33.07
2023-01-08T22:08:05.304Z,33.33
2023-01-08T22:13:15.827Z,33.83
2023-01-08T22:18:26.718Z,32.73
2023-01-08T22:23:43.836Z,31.57
2023-01-08T22:26:11.605Z,31.77
2023-01-08T22:28:41.333Z,30.83
2023-01-08T22:31:11.386Z,30.07
2023-01-08T22:33:38.371Z,31.53
2023-01-08T22:36:05.724Z,30.77
2023-01-08T22:38:32.363Z,32.33
2023-01-08T22:40:59.278Z,32.33
2023-01-08T22:43:25.894Z,31.83
2023-01-08T22:45:53.204Z,32.30
2023-01-08T22:48:22.206Z,32.27
2023-01-08T22:50:51.925Z,32.23
2023-01-08T22:53:18.576Z,32.67
2023-01-08T22:55:48.548Z,32.17
2023-01-08T22:58:15.542Z,32.57
2023-01-08T23:00:42.224Z,31.83
2023-01-08T23:03:08.973Z,31.13
2023-01-08T23:05:35.635Z,32.80
2023-01-08T23:08:04.476Z,32.93
2023-01-08T23:10:31.243Z,34.97
2023-01-08T23:12:57.912Z,33.73
2023-01-08T23:15:24.730Z,33.67
2023-01-08T23:17:52.383Z,32.53
2023-01-08T23:20:19.797Z,32.67
2023-01-08T23:22:46.875Z,32.40
2023-01-08T23:25:13.528Z,34.33
2023-01-08T23:27:40.161Z,34.50
2023-01-08T23:30:06.910Z,33.00
2023-01-08T23:32:33.990Z,34.13
2023-01-08T23:35:00.581Z,31.87
2023-01-08T23:37:27.236Z,32.90
2023-01-08T23:39:53.947Z,33.97
2023-01-08T23:42:20.712Z,32.37
2023-01-08T23:44:48.781Z,33.77
2023-01-08T23:47:15.432Z,31.63
2023-01-08T23:49:42.020Z,32.97
2023-01-08T23:52:08.649Z,33.70
2023-01-08T23:54:35.969Z,33.37
2023-01-08T23:57:02.729Z,33.30
2023-01-08T23:59:29.353Z,30.40
